sensor_id;sensor_type;location;lat;lon;timestamp;pressure;altitude;pressure_sealevel;temperature;humidity
74573;BME280;63071;51.526;-0.134;2022-09-23T00:00:39;101175.84;;;25.58;37.09
74573;BME280;63071;51.526;-0.134;2022-09-23T00:03:05;101191.94;;;25.66;36.74
74573;BME280;63071;51.526;-0.134;2022-09-23T00:05:31;101191.94;;;25.66;37.12
74573;BME280;63071;51.526;-0.134;2022-09-23T00:07:57;101185.81;;;25.65;36.52
74573;BME280;63071;51.526;-0.134;2022-09-23T00:10:25;101184.28;;;25.64;37.19
74573;BME280;63071;51.526;-0.134;2022-09-23T00:12:51;101175.47;;;25.64;36.95
74573;BME280;63071;51.526;-0.134;2022-09-23T00:15:17;101174.34;;;25.61;36.78
74573;BME280;63071;51.526;-0.134;2022-09-23T00:17:43;101178.53;;;25.62;36.53
74573;BME280;63071;51.526;-0.134;2022-09-23T00:20:09;101174.72;;;25.63;36.58
74573;BME280;63071;51.526;-0.134;2022-09-23T00:22:35;101181.97;;;25.63;36.43
74573;BME280;63071;51.526;-0.134;2022-09-23T00:25:06;101176.59;;;25.63;36.46
74573;BME280;63071;51.526;-0.134;2022-09-23T00:27:34;101167.03;;;25.58;36.91
74573;BME280;63071;51.526;-0.134;2022-09-23T00:30:00;101178.16;;;25.64;36.70
74573;BME280;63071;51.526;-0.134;2022-09-23T00:32:26;101165.91;;;25.59;36.94
74573;BME280;63071;51.526;-0.134;2022-09-23T00:34:52;101155.22;;;25.59;36.39
74573;BME280;63071;51.526;-0.134;2022-09-23T00:37:18;101164.00;;;25.63;36.75
74573;BME280;63071;51.526;-0.134;2022-09-23T00:39:44;101151.75;;;25.62;36.64
74573;BME280;63071;51.526;-0.134;2022-09-23T00:42:14;101150.63;;;25.63;37.18
74573;BME280;63071;51.526;-0.134;2022-09-23T00:44:55;101150.63;;;25.63;37.14
74573;BME280;63071;51.526;-0.134;2022-09-23T00:50:00;101139.53;;;25.61;36.52
74573;BME280;63071;51.526;-0.134;2022-09-23T00:52:28;101132.63;;;25.60;37.43
74573;BME280;63071;51.526;-0.134;2022-09-23T00:54:58;101129.97;;;25.60;36.49
74573;BME280;63071;51.526;-0.134;2022-09-23T00:57:27;101133.03;;;25.62;36.61
74573;BME280;63071;51.526;-0.134;2022-09-23T00:59:53;101133.78;;;25.59;36.67
74573;BME280;63071;51.526;-0.134;2022-09-23T01:02:19;101138.34;;;25.58;36.87
74573;BME280;63071;51.526;-0.134;2022-09-23T01:04:48;101136.06;;;25.57;36.41
74573;BME280;63071;51.526;-0.134;2022-09-23T01:07:14;101129.56;;;25.58;36.67
74573;BME280;63071;51.526;-0.134;2022-09-23T01:09:40;101133.00;;;25.58;37.22
74573;BME280;63071;51.526;-0.134;2022-09-23T01:12:22;101137.22;;;25.59;36.63
74573;BME280;63071;51.526;-0.134;2022-09-23T01:18:06;101168.19;;;25.61;36.33
74573;BME280;63071;51.526;-0.134;2022-09-23T01:39:36;101141.44;;;25.57;37.33
74573;BME280;63071;51.526;-0.134;2022-09-23T01:42:28;101147.91;;;25.56;36.75
74573;BME280;63071;51.526;-0.134;2022-09-23T01:47:38;101138.38;;;25.55;36.93
74573;BME280;63071;51.526;-0.134;2022-09-23T01:50:13;101140.28;;;25.58;36.94
74573;BME280;63071;51.526;-0.134;2022-09-23T01:53:12;101140.66;;;25.56;37.36
74573;BME280;63071;51.526;-0.134;2022-09-23T01:55:45;101134.16;;;25.57;36.68
74573;BME280;63071;51.526;-0.134;2022-09-23T01:58:23;101134.16;;;25.57;36.90
74573;BME280;63071;51.526;-0.134;2022-09-23T02:01:03;101130.72;;;25.57;37.28
74573;BME280;63071;51.526;-0.134;2022-09-23T02:03:42;101127.66;;;25.55;36.69
74573;BME280;63071;51.526;-0.134;2022-09-23T02:06:21;101124.59;;;25.56;36.91
74573;BME280;63071;51.526;-0.134;2022-09-23T02:09:07;101122.31;;;25.55;36.91
74573;BME280;63071;51.526;-0.134;2022-09-23T02:11:35;101113.09;;;25.52;37.21
74573;BME280;63071;51.526;-0.134;2022-09-23T02:14:16;101112.34;;;25.55;37.16
74573;BME280;63071;51.526;-0.134;2022-09-23T02:16:49;101120.03;;;25.57;36.65
74573;BME280;63071;51.526;-0.134;2022-09-23T02:22:20;101114.66;;;25.57;37.27
74573;BME280;63071;51.526;-0.134;2022-09-23T02:24:47;101108.94;;;25.55;36.88
74573;BME280;63071;51.526;-0.134;2022-09-23T02:27:28;101113.88;;;25.53;36.96
74573;BME280;63071;51.526;-0.134;2022-09-23T02:32:57;101105.84;;;25.53;36.96
74573;BME280;63071;51.526;-0.134;2022-09-23T02:43:39;101119.63;;;25.55;37.25
74573;BME280;63071;51.526;-0.134;2022-09-23T02:46:07;101115.78;;;25.52;36.97
74573;BME280;63071;51.526;-0.134;2022-09-23T02:48:52;101111.22;;;25.53;37.28
74573;BME280;63071;51.526;-0.134;2022-09-23T02:51:22;101126.88;;;25.54;36.98
74573;BME280;63071;51.526;-0.134;2022-09-23T02:53:55;101113.50;;;25.54;37.42
74573;BME280;63071;51.526;-0.134;2022-09-23T02:56:21;101107.38;;;25.54;36.73
74573;BME280;63071;51.526;-0.134;2022-09-23T02:58:54;101112.34;;;25.55;37.69
74573;BME280;63071;51.526;-0.134;2022-09-23T03:04:28;101107.38;;;25.54;37.23
74573;BME280;63071;51.526;-0.134;2022-09-23T03:07:06;101122.69;;;25.53;37.00
74573;BME280;63071;51.526;-0.134;2022-09-23T03:09:40;101115.78;;;25.52;36.92
74573;BME280;63071;51.526;-0.134;2022-09-23T03:17:13;101093.59;;;25.52;37.01
74573;BME280;63071;51.526;-0.134;2022-09-23T03:19:49;101097.44;;;25.51;37.47
74573;BME280;63071;51.526;-0.134;2022-09-23T03:22:29;101092.84;;;25.51;37.33
74573;BME280;63071;51.526;-0.134;2022-09-23T03:25:07;101084.44;;;25.53;37.04
74573;BME280;63071;51.526;-0.134;2022-09-23T03:27:35;101095.53;;;25.51;37.03
74573;BME280;63071;51.526;-0.134;2022-09-23T03:30:03;101102.41;;;25.52;37.42
74573;BME280;63071;51.526;-0.134;2022-09-23T03:32:33;101095.91;;;25.50;36.96
74573;BME280;63071;51.526;-0.134;2022-09-23T03:35:01;101096.66;;;25.50;37.50
74573;BME280;63071;51.526;-0.134;2022-09-23T03:40:23;101094.38;;;25.52;37.16
74573;BME280;63071;51.526;-0.134;2022-09-23T03:42:55;101081.75;;;25.49;37.30
74573;BME280;63071;51.526;-0.134;2022-09-23T03:45:27;101090.94;;;25.52;37.86
74573;BME280;63071;51.526;-0.134;2022-09-23T03:47:53;101085.56;;;25.52;37.36
74573;BME280;63071;51.526;-0.134;2022-09-23T03:50:19;101090.16;;;25.51;37.30
74573;BME280;63071;51.526;-0.134;2022-09-23T03:52:45;101094.75;;;25.51;37.03
74573;BME280;63071;51.526;-0.134;2022-09-23T03:55:11;101084.81;;;25.51;36.95
74573;BME280;63071;51.526;-0.134;2022-09-23T03:57:37;101092.84;;;25.51;36.90
74573;BME280;63071;51.526;-0.134;2022-09-23T04:00:04;101076.41;;;25.49;37.49
74573;BME280;63071;51.526;-0.134;2022-09-23T04:02:31;101085.56;;;25.52;37.48
74573;BME280;63071;51.526;-0.134;2022-09-23T04:04:56;101079.47;;;25.51;37.45
74573;BME280;63071;51.526;-0.134;2022-09-23T04:07:21;101080.22;;;25.52;37.54
74573;BME280;63071;51.526;-0.134;2022-09-23T04:09:47;101067.97;;;25.47;37.43
74573;BME280;63071;51.526;-0.134;2022-09-23T04:12:14;101071.81;;;25.50;37.25
74573;BME280;63071;51.526;-0.134;2022-09-23T04:14:41;101073.75;;;25.53;37.67
74573;BME280;63071;51.526;-0.134;2022-09-23T04:17:07;101072.59;;;25.54;37.29
74573;BME280;63071;51.526;-0.134;2022-09-23T04:19:32;101073.75;;;25.53;37.89
74573;BME280;63071;51.526;-0.134;2022-09-23T04:21:58;101078.31;;;25.52;37.15
74573;BME280;63071;51.526;-0.134;2022-09-23T04:24:24;101074.88;;;25.52;37.71
74573;BME280;63071;51.526;-0.134;2022-09-23T04:26:51;101073.72;;;25.49;37.47
74573;BME280;63071;51.526;-0.134;2022-09-23T04:29:17;101070.69;;;25.51;37.11
74573;BME280;63071;51.526;-0.134;2022-09-23T04:31:43;101066.47;;;25.50;37.81
74573;BME280;63071;51.526;-0.134;2022-09-23T04:34:09;101070.69;;;25.51;37.54
74573;BME280;63071;51.526;-0.134;2022-09-23T04:36:34;101065.31;;;25.51;37.10
74573;BME280;63071;51.526;-0.134;2022-09-23T04:39:00;101072.56;;;25.50;37.64
74573;BME280;63071;51.526;-0.134;2022-09-23T04:41:26;101069.50;;;25.48;37.17
74573;BME280;63071;51.526;-0.134;2022-09-23T04:43:52;101064.56;;;25.47;37.47
74573;BME280;63071;51.526;-0.134;2022-09-23T04:46:17;101064.53;;;25.50;37.50
74573;BME280;63071;51.526;-0.134;2022-09-23T04:48:43;101069.13;;;25.50;37.90
74573;BME280;63071;51.526;-0.134;2022-09-23T04:51:12;101067.63;;;25.49;37.86
74573;BME280;63071;51.526;-0.134;2022-09-23T04:53:40;101072.56;;;25.50;37.18
74573;BME280;63071;51.526;-0.134;2022-09-23T04:56:18;101068.38;;;25.49;37.48
74573;BME280;63071;51.526;-0.134;2022-09-23T04:58:44;101059.19;;;25.47;37.61
74573;BME280;63071;51.526;-0.134;2022-09-23T05:01:24;101067.22;;;25.50;37.86
74573;BME280;63071;51.526;-0.134;2022-09-23T05:03:59;101063.78;;;25.50;37.31
74573;BME280;63071;51.526;-0.134;2022-09-23T05:06:31;101069.91;;;25.47;37.57
74573;BME280;63071;51.526;-0.134;2022-09-23T05:08:59;101066.44;;;25.46;37.28
74573;BME280;63071;51.526;-0.134;2022-09-23T05:11:25;101063.38;;;25.48;37.65
74573;BME280;63071;51.526;-0.134;2022-09-23T05:13:53;101058.03;;;25.48;37.41
74573;BME280;63071;51.526;-0.134;2022-09-23T05:16:19;101057.66;;;25.49;37.54
74573;BME280;63071;51.526;-0.134;2022-09-23T05:18:48;101055.75;;;25.50;37.91
74573;BME280;63071;51.526;-0.134;2022-09-23T05:21:16;101059.19;;;25.47;37.99
74573;BME280;63071;51.526;-0.134;2022-09-23T05:23:46;101061.88;;;25.50;37.31
74573;BME280;63071;51.526;-0.134;2022-09-23T05:26:13;101063.03;;;25.49;37.30
74573;BME280;63071;51.526;-0.134;2022-09-23T05:28:38;101062.25;;;25.49;37.22
74573;BME280;63071;51.526;-0.134;2022-09-23T05:31:06;101069.13;;;25.50;38.02
74573;BME280;63071;51.526;-0.134;2022-09-23T05:33:33;101065.69;;;25.49;37.56
74573;BME280;63071;51.526;-0.134;2022-09-23T05:36:00;101054.97;;;25.46;37.43
74573;BME280;63071;51.526;-0.134;2022-09-23T05:38:27;101062.63;;;25.47;37.49
74573;BME280;63071;51.526;-0.134;2022-09-23T05:40:56;101066.81;;;25.48;37.28
74573;BME280;63071;51.526;-0.134;2022-09-23T05:43:22;101059.19;;;25.47;37.43
74573;BME280;63071;51.526;-0.134;2022-09-23T05:45:49;101066.06;;;25.48;37.66
74573;BME280;63071;51.526;-0.134;2022-09-23T05:48:14;101073.34;;;25.47;37.89
74573;BME280;63071;51.526;-0.134;2022-09-23T05:50:48;101064.91;;;25.45;37.74
74573;BME280;63071;51.526;-0.134;2022-09-23T05:53:14;101061.84;;;25.43;37.58
74573;BME280;63071;51.526;-0.134;2022-09-23T05:55:40;101061.50;;;25.45;37.59
74573;BME280;63071;51.526;-0.134;2022-09-23T05:58:05;101064.16;;;25.45;38.10
74573;BME280;63071;51.526;-0.134;2022-09-23T06:00:31;101066.44;;;25.46;38.29
74573;BME280;63071;51.526;-0.134;2022-09-23T06:02:56;101068.75;;;25.48;37.58
74573;BME280;63071;51.526;-0.134;2022-09-23T06:05:22;101074.09;;;25.48;38.04
74573;BME280;63071;51.526;-0.134;2022-09-23T06:07:47;101072.56;;;25.47;37.84
74573;BME280;63071;51.526;-0.134;2022-09-23T06:10:12;101064.53;;;25.43;37.55
74573;BME280;63071;51.526;-0.134;2022-09-23T06:12:38;101070.66;;;25.47;37.48
74573;BME280;63071;51.526;-0.134;2022-09-23T06:15:04;101071.78;;;25.46;37.48
74573;BME280;63071;51.526;-0.134;2022-09-23T06:17:29;101066.84;;;25.45;37.61
74573;BME280;63071;51.526;-0.134;2022-09-23T06:19:55;101067.97;;;25.44;37.76
74573;BME280;63071;51.526;-0.134;2022-09-23T06:22:23;101068.34;;;25.46;38.10
74573;BME280;63071;51.526;-0.134;2022-09-23T06:24:49;101067.59;;;25.45;38.14
74573;BME280;63071;51.526;-0.134;2022-09-23T06:27:14;101072.19;;;25.48;37.84
74573;BME280;63071;51.526;-0.134;2022-09-23T06:29:40;101063.78;;;25.50;38.71
74573;BME280;63071;51.526;-0.134;2022-09-23T06:32:05;101073.75;;;25.53;38.64
74573;BME280;63071;51.526;-0.134;2022-09-23T06:34:30;101075.25;;;25.54;37.89
74573;BME280;63071;51.526;-0.134;2022-09-23T06:36:56;101074.50;;;25.53;38.03
74573;BME280;63071;51.526;-0.134;2022-09-23T06:39:22;101084.06;;;25.54;38.44
74573;BME280;63071;51.526;-0.134;2022-09-23T06:41:47;101089.41;;;25.58;37.82
74573;BME280;63071;51.526;-0.134;2022-09-23T06:44:13;101085.22;;;25.57;37.66
74573;BME280;63071;51.526;-0.134;2022-09-23T06:46:39;101078.31;;;25.56;37.87
74573;BME280;63071;51.526;-0.134;2022-09-23T06:49:05;101079.47;;;25.55;38.15
74573;BME280;63071;51.526;-0.134;2022-09-23T06:51:34;101080.63;;;25.54;38.34
74573;BME280;63071;51.526;-0.134;2022-09-23T06:53:59;101080.22;;;25.48;38.20
74573;BME280;63071;51.526;-0.134;2022-09-23T06:56:24;101088.66;;;25.54;38.23
74573;BME280;63071;51.526;-0.134;2022-09-23T06:58:51;101085.56;;;25.52;38.00
74573;BME280;63071;51.526;-0.134;2022-09-23T07:01:18;101085.56;;;25.52;37.92
74573;BME280;63071;51.526;-0.134;2022-09-23T07:03:45;101089.81;;;25.53;38.29
74573;BME280;63071;51.526;-0.134;2022-09-23T07:06:12;101097.84;;;25.53;38.11
74573;BME280;63071;51.526;-0.134;2022-09-23T07:08:42;101089.81;;;25.53;38.09
74573;BME280;63071;51.526;-0.134;2022-09-23T07:11:09;101091.31;;;25.50;38.01
74573;BME280;63071;51.526;-0.134;2022-09-23T07:13:38;101095.91;;;25.50;37.96
74573;BME280;63071;51.526;-0.134;2022-09-23T07:16:05;101092.09;;;25.51;38.57
74573;BME280;63071;51.526;-0.134;2022-09-23T07:18:33;101097.03;;;25.52;38.36
74573;BME280;63071;51.526;-0.134;2022-09-23T07:21:06;101084.06;;;25.51;38.05
74573;BME280;63071;51.526;-0.134;2022-09-23T07:23:33;101090.53;;;25.50;37.88
74573;BME280;63071;51.526;-0.134;2022-09-23T07:25:58;101093.59;;;25.48;38.00
74573;BME280;63071;51.526;-0.134;2022-09-23T07:28:24;101084.03;;;25.47;38.36
74573;BME280;63071;51.526;-0.134;2022-09-23T07:30:52;101093.22;;;25.50;38.41
74573;BME280;63071;51.526;-0.134;2022-09-23T07:33:17;101091.69;;;25.49;38.36
74573;BME280;63071;51.526;-0.134;2022-09-23T07:35:43;101095.91;;;25.50;37.87
74573;BME280;63071;51.526;-0.134;2022-09-23T07:38:09;101094.38;;;25.49;37.90
74573;BME280;63071;51.526;-0.134;2022-09-23T07:40:35;101099.72;;;25.49;38.10
74573;BME280;63071;51.526;-0.134;2022-09-23T07:43:02;101109.66;;;25.48;38.13
74573;BME280;63071;51.526;-0.134;2022-09-23T07:45:29;101103.91;;;25.50;38.28
74573;BME280;63071;51.526;-0.134;2022-09-23T07:47:56;101106.97;;;25.48;37.97
74573;BME280;63071;51.526;-0.134;2022-09-23T07:50:22;101106.97;;;25.48;37.86
74573;BME280;63071;51.526;-0.134;2022-09-23T07:52:47;101112.31;;;25.48;37.87
74573;BME280;63071;51.526;-0.134;2022-09-23T07:55:16;101108.88;;;25.48;38.35
74573;BME280;63071;51.526;-0.134;2022-09-23T07:57:42;101111.56;;;25.48;38.08
74573;BME280;63071;51.526;-0.134;2022-09-23T08:00:08;101105.44;;;25.47;37.74
74573;BME280;63071;51.526;-0.134;2022-09-23T08:02:34;101106.22;;;25.48;38.47
74573;BME280;63071;51.526;-0.134;2022-09-23T08:04:59;101108.88;;;25.48;38.38
74573;BME280;63071;51.526;-0.134;2022-09-23T08:07:25;101104.31;;;25.45;37.89
74573;BME280;63071;51.526;-0.134;2022-09-23T08:09:51;101103.16;;;25.46;38.32
74573;BME280;63071;51.526;-0.134;2022-09-23T08:12:17;101110.03;;;25.47;38.15
74573;BME280;63071;51.526;-0.134;2022-09-23T08:14:43;101105.44;;;25.47;38.59
74573;BME280;63071;51.526;-0.134;2022-09-23T08:17:10;101107.75;;;25.49;38.14
74573;BME280;63071;51.526;-0.134;2022-09-23T08:19:36;101106.22;;;25.48;38.56
74573;BME280;63071;51.526;-0.134;2022-09-23T08:22:01;101108.50;;;25.46;38.32
74573;BME280;63071;51.526;-0.134;2022-09-23T08:24:27;101105.81;;;25.46;38.14
74573;BME280;63071;51.526;-0.134;2022-09-23T08:26:56;101109.66;;;25.45;38.10
74573;BME280;63071;51.526;-0.134;2022-09-23T08:29:23;101119.56;;;25.44;38.68
74573;BME280;63071;51.526;-0.134;2022-09-23T08:31:50;101113.09;;;25.45;38.89
74573;BME280;63071;51.526;-0.134;2022-09-23T08:34:18;101118.44;;;25.45;38.17
74573;BME280;63071;51.526;-0.134;2022-09-23T08:36:44;101121.50;;;25.44;38.31
74573;BME280;63071;51.526;-0.134;2022-09-23T08:39:17;101123.03;;;25.45;38.01
74573;BME280;63071;51.526;-0.134;2022-09-23T08:44:27;101132.19;;;25.44;38.21
74573;BME280;63071;51.526;-0.134;2022-09-23T08:49:31;101134.88;;;25.44;38.95
74573;BME280;63071;51.526;-0.134;2022-09-23T08:52:08;101131.81;;;25.42;38.52
74573;BME280;63071;51.526;-0.134;2022-09-23T08:54:38;101136.03;;;25.43;39.13
74573;BME280;63071;51.526;-0.134;2022-09-23T08:57:06;101140.19;;;25.40;38.73
74573;BME280;63071;51.526;-0.134;2022-09-23T08:59:41;101136.75;;;25.39;38.31
74573;BME280;63071;51.526;-0.134;2022-09-23T09:02:17;101144.06;;;25.43;38.88
74573;BME280;63071;51.526;-0.134;2022-09-23T09:04:53;101140.59;;;25.42;38.85
74573;BME280;63071;51.526;-0.134;2022-09-23T09:07:24;101136.03;;;25.43;38.58
74573;BME280;63071;51.526;-0.134;2022-09-23T09:12:49;101142.50;;;25.42;39.02
74573;BME280;63071;51.526;-0.134;2022-09-23T09:15:21;101139.81;;;25.42;39.05
74573;BME280;63071;51.526;-0.134;2022-09-23T09:18:12;101145.19;;;25.42;38.71
74573;BME280;63071;51.526;-0.134;2022-09-23T09:21:13;101148.63;;;25.42;38.43
74573;BME280;63071;51.526;-0.134;2022-09-23T09:23:58;101145.53;;;25.40;38.96
74573;BME280;63071;51.526;-0.134;2022-09-23T09:26:32;101145.53;;;25.40;38.76
74573;BME280;63071;51.526;-0.134;2022-09-23T09:29:06;101143.66;;;25.41;39.11
74573;BME280;63071;51.526;-0.134;2022-09-23T09:31:42;101142.88;;;25.40;39.03
74573;BME280;63071;51.526;-0.134;2022-09-23T09:34:25;101149.78;;;25.41;38.50
74573;BME280;63071;51.526;-0.134;2022-09-23T09:37:02;101143.66;;;25.41;38.42
74573;BME280;63071;51.526;-0.134;2022-09-23T09:39:30;101149.78;;;25.41;39.10
74573;BME280;63071;51.526;-0.134;2022-09-23T09:41:56;101146.34;;;25.41;39.21
74573;BME280;63071;51.526;-0.134;2022-09-23T09:44:47;101140.19;;;25.40;38.83
74573;BME280;63071;51.526;-0.134;2022-09-23T09:50:14;101143.25;;;25.42;39.23
74573;BME280;63071;51.526;-0.134;2022-09-23T09:52:49;101139.81;;;25.42;38.73
74573;BME280;63071;51.526;-0.134;2022-09-23T09:55:27;101138.31;;;25.41;38.73
74573;BME280;63071;51.526;-0.134;2022-09-23T09:57:59;101126.03;;;25.36;39.18
74573;BME280;63071;51.526;-0.134;2022-09-23T10:03:00;101135.63;;;25.41;39.45
74573;BME280;63071;51.526;-0.134;2022-09-23T10:05:33;101136.72;;;25.32;39.80
74573;BME280;63071;51.526;-0.134;2022-09-23T10:11:01;101134.38;;;25.24;40.26
74573;BME280;63071;51.526;-0.134;2022-09-23T10:13:29;101130.19;;;25.26;40.50
74573;BME280;63071;51.526;-0.134;2022-09-23T10:15:56;101134.03;;;25.29;40.29
74573;BME280;63071;51.526;-0.134;2022-09-23T10:21:00;101139.75;;;25.27;40.60
74573;BME280;63071;51.526;-0.134;2022-09-23T10:23:28;101130.97;;;25.30;41.43
74573;BME280;63071;51.526;-0.134;2022-09-23T10:26:00;101139.00;;;25.30;40.81
74573;BME280;63071;51.526;-0.134;2022-09-23T10:28:37;101138.25;;;25.33;40.80
74573;BME280;63071;51.526;-0.134;2022-09-23T10:31:09;101139.78;;;25.34;40.98
74573;BME280;63071;51.526;-0.134;2022-09-23T10:33:56;101143.63;;;25.37;41.49
74573;BME280;63071;51.526;-0.134;2022-09-23T10:36:26;101132.16;;;25.33;40.72
74573;BME280;63071;51.526;-0.134;2022-09-23T10:38:56;101136.31;;;25.27;40.47
74573;BME280;63071;51.526;-0.134;2022-09-23T10:41:51;101118.69;;;25.22;40.96
74573;BME280;63071;51.526;-0.134;2022-09-23T10:45:00;101127.13;;;25.24;40.53
74573;BME280;63071;51.526;-0.134;2022-09-23T10:48:08;101121.41;;;25.26;40.54
74573;BME280;63071;51.526;-0.134;2022-09-23T10:50:43;101123.72;;;25.27;40.98
74573;BME280;63071;51.526;-0.134;2022-09-23T10:56:32;101121.78;;;25.24;41.01
74573;BME280;63071;51.526;-0.134;2022-09-23T11:07:55;101114.19;;;25.33;40.17
74573;BME280;63071;51.526;-0.134;2022-09-23T11:10:53;101114.97;;;25.37;40.59
74573;BME280;63071;51.526;-0.134;2022-09-23T11:13:41;101111.91;;;25.39;40.16
74573;BME280;63071;51.526;-0.134;2022-09-23T11:31:26;101117.69;;;25.45;40.18
74573;BME280;63071;51.526;-0.134;2022-09-23T11:34:00;101118.47;;;25.49;40.58
74573;BME280;63071;51.526;-0.134;2022-09-23T11:36:37;101117.69;;;25.48;40.62
74573;BME280;63071;51.526;-0.134;2022-09-23T11:39:20;101111.94;;;25.46;39.92
74573;BME280;63071;51.526;-0.134;2022-09-23T11:41:51;101108.88;;;25.41;40.42
74573;BME280;63071;51.526;-0.134;2022-09-23T11:44:42;101094.28;;;25.34;40.23
74573;BME280;63071;51.526;-0.134;2022-09-23T11:47:23;101107.69;;;25.38;40.42
74573;BME280;63071;51.526;-0.134;2022-09-23T11:52:48;101104.63;;;25.29;40.52
74573;BME280;63071;51.526;-0.134;2022-09-23T11:55:22;101101.53;;;25.23;40.60
74573;BME280;63071;51.526;-0.134;2022-09-23T12:00:48;101096.19;;;25.23;40.63
74573;BME280;63071;51.526;-0.134;2022-09-23T12:06:05;101099.97;;;25.22;39.73
74573;BME280;63071;51.526;-0.134;2022-09-23T12:08:35;101097.31;;;25.22;40.36
74573;BME280;63071;51.526;-0.134;2022-09-23T12:11:35;101096.19;;;25.23;39.97
74573;BME280;63071;51.526;-0.134;2022-09-23T12:14:31;101094.66;;;25.29;40.15
74573;BME280;63071;51.526;-0.134;2022-09-23T12:23:05;101086.69;;;25.44;39.48
74573;BME280;63071;51.526;-0.134;2022-09-23T12:25:49;101087.09;;;25.46;39.56
74573;BME280;63071;51.526;-0.134;2022-09-23T12:28:27;101083.25;;;25.43;39.98
74573;BME280;63071;51.526;-0.134;2022-09-23T12:30:58;101083.66;;;25.45;40.41
74573;BME280;63071;51.526;-0.134;2022-09-23T12:33:35;101076.38;;;25.42;40.05
74573;BME280;63071;51.526;-0.134;2022-09-23T12:41:02;101069.50;;;25.41;39.79
74573;BME280;63071;51.526;-0.134;2022-09-23T12:43:53;101071.78;;;25.46;39.20
74573;BME280;63071;51.526;-0.134;2022-09-23T12:46:26;101072.56;;;25.47;39.57
74573;BME280;63071;51.526;-0.134;2022-09-23T12:51:26;101080.19;;;25.41;39.32
74573;BME280;63071;51.526;-0.134;2022-09-23T12:53:56;101066.81;;;25.41;39.00
74573;BME280;63071;51.526;-0.134;2022-09-23T12:58:58;101068.34;;;25.42;39.23
74573;BME280;63071;51.526;-0.134;2022-09-23T13:01:24;101065.28;;;25.44;39.55
74573;BME280;63071;51.526;-0.134;2022-09-23T13:03:55;101067.59;;;25.45;39.08
74573;BME280;63071;51.526;-0.134;2022-09-23T13:06:56;101071.03;;;25.46;39.44
74573;BME280;63071;51.526;-0.134;2022-09-23T13:09:30;101068.34;;;25.46;38.83
74573;BME280;63071;51.526;-0.134;2022-09-23T13:12:07;101067.97;;;25.47;39.02
74573;BME280;63071;51.526;-0.134;2022-09-23T13:14:40;101064.94;;;25.49;38.97
74573;BME280;63071;51.526;-0.134;2022-09-23T13:17:31;101066.50;;;25.57;38.78
74573;BME280;63071;51.526;-0.134;2022-09-23T13:25:25;101064.97;;;25.59;39.35
74573;BME280;63071;51.526;-0.134;2022-09-23T13:27:59;101059.59;;;25.59;38.48
74573;BME280;63071;51.526;-0.134;2022-09-23T13:30:25;101064.19;;;25.59;38.81
74573;BME280;63071;51.526;-0.134;2022-09-23T13:33:15;101052.34;;;25.60;39.21
74573;BME280;63071;51.526;-0.134;2022-09-23T13:35:49;101062.66;;;25.62;38.59
74573;BME280;63071;51.526;-0.134;2022-09-23T13:38:22;101057.69;;;25.60;38.61
74573;BME280;63071;51.526;-0.134;2022-09-23T13:41:00;101062.66;;;25.58;38.82
74573;BME280;63071;51.526;-0.134;2022-09-23T13:43:31;101065.75;;;25.67;38.64
74573;BME280;63071;51.526;-0.134;2022-09-23T13:46:00;101057.69;;;25.71;38.87
74573;BME280;63071;51.526;-0.134;2022-09-23T13:48:30;101060.41;;;25.74;38.31
74573;BME280;63071;51.526;-0.134;2022-09-23T13:50:56;101056.19;;;25.73;38.89
74573;BME280;63071;51.526;-0.134;2022-09-23T13:53:26;101055.44;;;25.76;38.95
74573;BME280;63071;51.526;-0.134;2022-09-23T13:56:18;101053.88;;;25.79;38.42
74573;BME280;63071;51.526;-0.134;2022-09-23T13:58:44;101042.44;;;25.78;38.69
74573;BME280;63071;51.526;-0.134;2022-09-23T14:01:32;101043.97;;;25.87;39.09
74573;BME280;63071;51.526;-0.134;2022-09-23T14:03:58;101051.28;;;25.90;38.44
74573;BME280;63071;51.526;-0.134;2022-09-23T14:06:25;101038.22;;;25.88;38.90
74573;BME280;63071;51.526;-0.134;2022-09-23T14:08:52;101040.16;;;25.95;38.24
74573;BME280;63071;51.526;-0.134;2022-09-23T14:11:29;101035.22;;;25.90;38.75
74573;BME280;63071;51.526;-0.134;2022-09-23T14:13:56;101035.97;;;25.90;38.91
74573;BME280;63071;51.526;-0.134;2022-09-23T14:16:25;101028.28;;;25.89;38.87
74573;BME280;63071;51.526;-0.134;2022-09-23T14:18:56;101031.75;;;25.93;38.85
74573;BME280;63071;51.526;-0.134;2022-09-23T14:21:35;101026.00;;;25.91;38.09
74573;BME280;63071;51.526;-0.134;2022-09-23T14:26:41;101026.41;;;25.96;38.72
74573;BME280;63071;51.526;-0.134;2022-09-23T14:29:14;101021.44;;;25.91;38.33
74573;BME280;63071;51.526;-0.134;2022-09-23T14:31:45;101020.25;;;25.89;38.21
74573;BME280;63071;51.526;-0.134;2022-09-23T14:34:43;101019.47;;;25.85;38.49
74573;BME280;63071;51.526;-0.134;2022-09-23T14:37:26;101014.91;;;25.82;38.27
74573;BME280;63071;51.526;-0.134;2022-09-23T14:40:17;101022.94;;;25.89;38.61
74573;BME280;63071;51.526;-0.134;2022-09-23T14:42:47;101018.34;;;25.89;38.58
74573;BME280;63071;51.526;-0.134;2022-09-23T14:45:19;101013.00;;;25.89;38.50
74573;BME280;63071;51.526;-0.134;2022-09-23T14:47:49;101001.91;;;25.87;38.21
74573;BME280;63071;51.526;-0.134;2022-09-23T14:50:20;100996.94;;;25.89;38.63
74573;BME280;63071;51.526;-0.134;2022-09-23T14:55:55;100994.25;;;25.89;38.26
74573;BME280;63071;51.526;-0.134;2022-09-23T14:59:00;100991.56;;;25.86;38.42
74573;BME280;63071;51.526;-0.134;2022-09-23T15:01:35;100991.56;;;25.86;38.34
74573;BME280;63071;51.526;-0.134;2022-09-23T15:04:32;100980.84;;;25.86;38.87
74573;BME280;63071;51.526;-0.134;2022-09-23T15:07:04;100979.69;;;25.87;38.34
74573;BME280;63071;51.526;-0.134;2022-09-23T15:09:36;100981.25;;;25.88;38.32
74573;BME280;63071;51.526;-0.134;2022-09-23T15:12:12;100975.13;;;25.87;39.07
74573;BME280;63071;51.526;-0.134;2022-09-23T15:14:42;100985.47;;;25.92;39.09
74573;BME280;63071;51.526;-0.134;2022-09-23T15:20:01;100986.25;;;26.00;39.08